Flugplatz Renneritz

Für EDOX sind keine METAR/TAF Berichte vorhanden.
Es werden die Flugwettermeldungen vom Flugplatz Leipzig Halle in 18 km Entfernung angezeigt.

Bericht für EDDP

vom 22.03. um 21:50 UTC

Wind 9 kt aus 130°

Sichtweite 8000 m

keine Wolken

Temperatur 8.0°C

Taupunkt 7.0°C

Luftfeuchtigkeit 93%

Luftdruck 1027 hPa

keine wesentliche Wetteränderung innerhalb den nächsten 2 Stunden zu erwarten

EDDP 222150Z 13009KT 8000 NSC 08/07 Q1027 NOSIG

Prognose für EDDP

vom 22.03. um 17:00 UTC

Zwischen 18:00 UTC und 22:00 UTC

Wind 7 kt aus 120°

Sichtweite 10 km oder mehr

keine signifikanten Wettererscheinungen

keine Wolken


Zwischen 22:00 und 00:00 UTC übergehend zu

Wind 6 kt aus 200°

Sichtweite 10 km oder mehr

keine signifikanten Wettererscheinungen

keine Wolken


Am 23.03. zwischen 07:00 und 09:00 UTC übergehend zu

Wind 8 kt aus 300°

Sichtweite 10 km oder mehr

keine signifikanten Wettererscheinungen

keine Wolken

TAF EDDP 221700Z 2218/2318 12007KT CAVOK BECMG 2222/2224 20006KT BECMG 2307/2309 30008KT
Impressum